createdAt,value
2022-10-19T00:00:33.392Z,22.84
2022-10-19T00:05:36.039Z,22.81
2022-10-19T00:10:41.178Z,22.77
2022-10-19T00:15:46.062Z,22.74
2022-10-19T00:20:48.737Z,22.70
2022-10-19T00:25:57.694Z,22.69
2022-10-19T00:31:05.252Z,22.66
2022-10-19T00:36:16.711Z,22.64
2022-10-19T00:41:20.964Z,22.63
2022-10-19T00:46:25.646Z,22.60
2022-10-19T00:51:30.130Z,22.59
2022-10-19T00:56:33.412Z,22.55
2022-10-19T01:01:37.849Z,22.54
2022-10-19T01:06:41.798Z,22.53
2022-10-19T01:11:51.647Z,22.51
2022-10-19T01:17:06.785Z,22.49
2022-10-19T01:22:25.057Z,22.45
2022-10-19T01:28:04.269Z,22.45
2022-10-19T01:33:22.880Z,22.42
2022-10-19T01:38:34.900Z,22.40
2022-10-19T01:43:43.862Z,22.38
2022-10-19T01:48:55.943Z,22.36
2022-10-19T01:54:02.259Z,22.35
2022-10-19T01:59:08.905Z,22.33
2022-10-19T02:04:16.871Z,22.32
2022-10-19T02:09:20.181Z,22.30
2022-10-19T02:14:26.650Z,22.29
2022-10-19T02:19:30.768Z,22.27
2022-10-19T02:24:33.497Z,22.26
2022-10-19T02:29:38.105Z,22.25
2022-10-19T02:34:42.867Z,22.22
2022-10-19T02:39:45.546Z,22.22
2022-10-19T02:44:52.627Z,22.20
2022-10-19T02:49:56.865Z,22.18
2022-10-19T02:54:59.637Z,22.18
2022-10-19T03:00:03.525Z,22.17
2022-10-19T03:05:08.735Z,22.15
2022-10-19T03:10:11.349Z,22.14
2022-10-19T03:15:16.808Z,22.14
2022-10-19T03:20:20.886Z,22.14
2022-10-19T03:25:23.703Z,22.15
2022-10-19T03:30:29.137Z,22.11
2022-10-19T03:35:33.229Z,22.09
2022-10-19T03:40:35.922Z,22.08
2022-10-19T03:45:38.614Z,22.06
2022-10-19T03:50:42.600Z,22.06
2022-10-19T03:55:45.421Z,22.05
2022-10-19T04:00:48.127Z,22.06
2022-10-19T04:05:52.229Z,22.04
2022-10-19T04:11:00.173Z,22.02
2022-10-19T04:16:03.342Z,22.01
2022-10-19T04:21:07.986Z,22.01
2022-10-19T04:26:10.865Z,21.99
2022-10-19T04:31:14.102Z,21.99
2022-10-19T04:36:18.147Z,21.98
2022-10-19T04:41:22.057Z,21.99
2022-10-19T04:46:25.960Z,21.98
2022-10-19T04:51:30.355Z,21.97
2022-10-19T04:56:33.293Z,21.97
2022-10-19T05:01:35.920Z,21.96
2022-10-19T05:06:39.907Z,21.95
2022-10-19T05:11:42.586Z,21.92
2022-10-19T05:16:45.361Z,21.93
2022-10-19T05:21:49.360Z,21.91
2022-10-19T05:26:52.309Z,21.91
2022-10-19T05:31:55.064Z,21.91
2022-10-19T05:36:59.153Z,21.89
2022-10-19T05:42:01.775Z,21.88
2022-10-19T05:47:04.485Z,21.87
2022-10-19T05:52:08.489Z,21.87
2022-10-19T05:57:11.194Z,21.85
2022-10-19T06:02:15.103Z,21.83
2022-10-19T06:07:19.332Z,21.81
2022-10-19T06:12:24.932Z,21.79
2022-10-19T06:17:29.906Z,21.80
2022-10-19T06:22:34.003Z,21.79
2022-10-19T06:27:37.355Z,21.78
2022-10-19T06:32:40.438Z,21.79
2022-10-19T06:37:45.381Z,21.79
2022-10-19T06:42:48.107Z,21.78
2022-10-19T06:47:50.890Z,21.76
2022-10-19T06:52:54.965Z,21.77
2022-10-19T06:58:01.589Z,21.75
2022-10-19T07:03:04.330Z,21.74
2022-10-19T07:08:08.464Z,21.74
2022-10-19T07:13:11.160Z,21.76
2022-10-19T07:18:14.360Z,21.75
2022-10-19T07:23:18.337Z,21.75
2022-10-19T07:28:21.922Z,21.74
2022-10-19T07:33:25.276Z,21.74
2022-10-19T07:38:29.958Z,21.75
2022-10-19T07:43:32.896Z,21.75
2022-10-19T07:48:36.376Z,21.74
2022-10-19T07:53:40.631Z,21.75
2022-10-19T07:58:43.457Z,21.76
2022-10-19T08:09:27.765Z,21.77
2022-10-19T08:14:34.530Z,21.75
2022-10-19T08:19:41.305Z,21.75
2022-10-19T08:24:45.696Z,21.75
2022-10-19T08:29:48.587Z,21.76
2022-10-19T08:34:51.586Z,21.76
2022-10-19T08:39:55.791Z,21.76
2022-10-19T08:45:26.877Z,21.76
2022-10-19T08:50:36.616Z,21.77
2022-10-19T08:55:50.720Z,21.79
2022-10-19T09:01:01.418Z,21.79
2022-10-19T09:06:19.984Z,21.79
2022-10-19T09:11:26.687Z,21.01
2022-10-19T09:16:29.435Z,20.37
2022-10-19T09:21:47.407Z,19.98
2022-10-19T09:26:54.592Z,19.88
2022-10-19T09:32:01.565Z,20.34
2022-10-19T09:37:04.774Z,20.77
2022-10-19T09:42:19.561Z,20.97
2022-10-19T09:47:39.421Z,21.08
2022-10-19T09:52:44.308Z,21.18
2022-10-19T09:57:50.609Z,21.24
2022-10-19T10:02:55.708Z,21.30
2022-10-19T10:07:59.223Z,21.36
2022-10-19T10:13:04.126Z,21.42
2022-10-19T10:18:06.862Z,21.47
2022-10-19T10:23:24.488Z,21.48
2022-10-19T10:28:29.917Z,21.51
2022-10-19T10:39:06.010Z,21.55
2022-10-19T10:44:20.236Z,21.56
2022-10-19T10:49:25.809Z,21.59
2022-10-19T10:54:31.200Z,21.60
2022-10-19T10:59:44.755Z,21.64
2022-10-19T11:04:53.273Z,21.65
2022-10-19T11:09:59.765Z,21.69
2022-10-19T11:15:13.045Z,21.68
2022-10-19T11:20:16.977Z,21.28
2022-10-19T11:25:32.219Z,21.07
2022-10-19T11:30:49.879Z,21.32
2022-10-19T11:35:58.037Z,21.39
2022-10-19T11:41:19.066Z,21.44
2022-10-19T11:46:29.883Z,21.48
2022-10-19T11:51:39.880Z,21.54
2022-10-19T11:57:02.875Z,21.57
2022-10-19T12:02:31.713Z,21.59
2022-10-19T12:07:51.203Z,21.62
2022-10-19T12:12:58.767Z,21.67
2022-10-19T12:18:08.320Z,21.69
2022-10-19T12:23:24.024Z,21.72
2022-10-19T12:28:30.984Z,21.73
2022-10-19T12:33:47.279Z,21.75
2022-10-19T12:39:00.842Z,21.79
2022-10-19T12:44:21.385Z,21.79
2022-10-19T12:49:45.513Z,21.81
2022-10-19T12:54:48.507Z,21.84
2022-10-19T13:00:01.472Z,21.88
2022-10-19T13:05:06.657Z,21.88
2022-10-19T13:10:21.805Z,21.94
2022-10-19T13:15:58.100Z,21.96
2022-10-19T13:21:03.617Z,21.96
2022-10-19T13:26:33.640Z,21.99
2022-10-19T13:31:37.543Z,22.01
2022-10-19T13:37:00.844Z,22.04
2022-10-19T13:42:03.638Z,22.06
2022-10-19T13:47:32.535Z,22.05
2022-10-19T13:53:12.461Z,22.08
2022-10-19T13:59:03.384Z,22.07
2022-10-19T14:04:20.585Z,22.08
2022-10-19T14:09:43.733Z,22.09
2022-10-19T14:14:46.660Z,22.10
2022-10-19T14:19:51.947Z,22.12
2022-10-19T14:25:03.606Z,22.11
2022-10-19T14:30:07.890Z,22.11
2022-10-19T14:35:21.504Z,22.08
2022-10-19T14:40:28.660Z,22.06
2022-10-19T14:45:33.059Z,22.07
2022-10-19T14:50:47.318Z,22.05
2022-10-19T14:55:55.557Z,22.05
2022-10-19T15:00:58.365Z,22.04
2022-10-19T15:06:03.723Z,22.03
2022-10-19T15:11:09.001Z,22.04
2022-10-19T15:16:29.887Z,22.03
2022-10-19T15:21:33.485Z,22.03
2022-10-19T15:26:38.043Z,22.02
2022-10-19T15:31:40.829Z,22.01
2022-10-19T15:36:55.465Z,22.01
2022-10-19T15:42:22.808Z,21.99
2022-10-19T15:47:26.824Z,21.98
2022-10-19T15:52:32.854Z,21.97
2022-10-19T15:57:39.287Z,21.98
2022-10-19T16:02:42.633Z,21.98
2022-10-19T16:07:45.507Z,21.93
2022-10-19T16:12:49.638Z,21.92
2022-10-19T16:17:55.125Z,21.91
2022-10-19T16:22:58.714Z,21.93
2022-10-19T16:28:02.835Z,21.95
2022-10-19T16:33:05.674Z,21.98
2022-10-19T16:38:08.280Z,22.01
2022-10-19T16:43:12.317Z,22.02
2022-10-19T16:48:14.961Z,22.04
2022-10-19T16:53:17.692Z,22.05
2022-10-19T16:58:21.638Z,22.07
2022-10-19T17:03:24.243Z,22.07
2022-10-19T17:08:36.678Z,22.07
2022-10-19T17:13:41.904Z,22.09
2022-10-19T17:18:44.898Z,22.10
2022-10-19T17:23:47.951Z,22.10
2022-10-19T17:28:51.948Z,22.09
2022-10-19T17:33:55.373Z,22.08
2022-10-19T17:38:59.752Z,22.07
2022-10-19T17:44:05.395Z,22.07
2022-10-19T17:49:08.919Z,22.10
2022-10-19T17:54:13.728Z,22.18
2022-10-19T17:59:22.613Z,22.24
2022-10-19T18:04:32.479Z,22.35
2022-10-19T18:09:35.132Z,22.41
2022-10-19T18:14:39.182Z,22.48
2022-10-19T18:19:42.019Z,22.57
2022-10-19T18:24:44.959Z,22.64
2022-10-19T18:29:49.168Z,22.72
2022-10-19T18:34:51.799Z,22.75
2022-10-19T18:39:54.507Z,22.77
2022-10-19T18:44:58.853Z,22.83
2022-10-19T18:50:01.799Z,22.85
2022-10-19T18:55:05.208Z,22.87
2022-10-19T19:00:11.027Z,22.95
2022-10-19T19:05:13.780Z,22.98
2022-10-19T19:10:16.996Z,23.02
2022-10-19T19:15:21.005Z,23.06
2022-10-19T19:20:23.625Z,23.11
2022-10-19T19:25:26.268Z,23.16
2022-10-19T19:30:30.369Z,23.20
2022-10-19T19:35:33.178Z,23.26
2022-10-19T19:40:39.065Z,23.29
2022-10-19T19:45:44.223Z,23.32
2022-10-19T19:50:47.653Z,23.35
2022-10-19T19:55:50.817Z,23.39
2022-10-19T20:00:54.815Z,23.42
2022-10-19T20:06:02.193Z,23.47
2022-10-19T20:11:07.526Z,23.48
2022-10-19T20:16:13.479Z,23.52
2022-10-19T20:21:17.780Z,23.60
2022-10-19T20:26:22.192Z,23.62
2022-10-19T20:36:36.102Z,23.62
2022-10-19T20:41:38.752Z,23.63
2022-10-19T20:46:42.703Z,23.66
2022-10-19T20:51:45.397Z,23.66
2022-10-19T20:56:48.382Z,23.67
2022-10-19T21:01:54.131Z,23.70
2022-10-19T21:06:57.257Z,23.71
2022-10-19T21:12:01.157Z,23.72
2022-10-19T21:17:05.270Z,23.72
2022-10-19T21:22:08.465Z,23.71
2022-10-19T21:27:12.061Z,23.71
2022-10-19T21:32:18.001Z,23.70
2022-10-19T21:37:20.605Z,23.70
2022-10-19T21:42:23.280Z,23.71
2022-10-19T21:47:27.288Z,23.69
2022-10-19T21:52:29.962Z,23.69
2022-10-19T21:57:32.753Z,23.68
2022-10-19T22:02:36.957Z,23.68
2022-10-19T22:07:39.757Z,23.67
2022-10-19T22:12:42.382Z,23.64
2022-10-19T22:17:46.406Z,23.63
2022-10-19T22:22:51.477Z,23.59
2022-10-19T22:27:56.891Z,23.54
2022-10-19T22:33:01.098Z,23.51
2022-10-19T22:38:03.697Z,23.44
2022-10-19T22:43:06.949Z,23.40
2022-10-19T22:48:10.978Z,23.36
2022-10-19T22:53:14.220Z,23.29
2022-10-19T22:58:17.137Z,23.21
2022-10-19T23:03:21.064Z,23.10
2022-10-19T23:08:23.871Z,23.06
2022-10-19T23:13:26.621Z,23.01
2022-10-19T23:18:32.910Z,22.94
2022-10-19T23:23:37.301Z,22.89
2022-10-19T23:28:42.239Z,22.85
2022-10-19T23:33:46.897Z,22.82
2022-10-19T23:38:51.264Z,22.78
2022-10-19T23:43:53.964Z,22.76
2022-10-19T23:48:57.965Z,22.74
2022-10-19T23:54:00.611Z,22.69
2022-10-19T23:59:03.253Z,22.66
